Data for 11/10/2007

Time Sea-Level Adjusted Pressure Absolute Pressure Temperature Relative Humidity Dew Point   
(mb) (inHg) (mb) (inHg) (C) (F) (%) (C) (F)
00:05 1013 29.91 842 24.86 8.4 47.1 43 -3.5 25.7
00:10 1013 29.91 842 24.86 8.2 46.7 44 -3.4 25.9
00:15 1013 29.91 843 24.89 8.3 46.9 43 -3.6 25.4
00:20 1013 29.91 843 24.89 8.7 47.6 41 -4 24.9
00:25 1013 29.91 842 24.86 9 48.2 40 -3.8 25.1
00:30 1013 29.91 842 24.86 9.1 48.3 40 -3.9 25
00:35 1013 29.91 842 24.86 8.8 47.9 41 -3.5 25.7
00:40 1013 29.91 842 24.86 8.4 47 43 -3.5 25.7
00:45 1013 29.91 842 24.86 7.9 46.3 44 -3.5 25.7
00:50 1013 29.91 842 24.86 7.6 45.7 43 -4 24.7
00:55 1013 29.91 842 24.86 8.2 46.8 42 -3.9 24.9
01:00 1013 29.91 842 24.86 8.8 47.8 40 -4.1 24.7
01:05 1013 29.91 842 24.86 8.6 47.5 41 -4.1 24.7
01:10 1013 29.91 842 24.86 8.6 47.4 40 -4.3 24.3
01:15 1013 29.91 842 24.86 8.7 47.6 40 -4.3 24.3
01:20 1013 29.91 842 24.86 8.9 48 38 -4.5 23.9
01:25 1013 29.91 842 24.86 9 48.3 38 -4.4 24.1
01:30 1013 29.91 842 24.86 9.2 48.5 36 -5 22.9
01:35 1013 29.91 842 24.86 9.3 48.7 37 -4.8 23.4
01:40 1013 29.91 842 24.86 9.5 49.1 36 -4.7 23.5
01:45 1013 29.91 842 24.86 9.6 49.2 36 -4.9 23.2
01:50 1013 29.91 842 24.86 9.7 49.5 35 -4.9 23.2
01:55 1013 29.91 842 24.86 9.8 49.7 35 -4.8 23.4
02:00 1013 29.91 842 24.86 9.6 49.3 38 -4 24.9
02:05 1013 29.91 842 24.86 8.9 48 41 -3.6 25.5
02:10 1013 29.91 842 24.86 8.4 47.1 42 -3.9 25
02:15 1013 29.91 842 24.86 8.1 46.6 43 -3.7 25.4
02:20 1013 29.91 842 24.86 8.2 46.8 41 -4.1 24.5
02:25 1013 29.91 842 24.86 8.6 47.4 41 -4 24.8
02:30 1013 29.91 842 24.86 8.5 47.3 42 -3.8 25.2
02:35 1013 29.91 842 24.86 8.5 47.2 41 -4 24.9
02:40 1013 29.91 842 24.86 8.4 47.2 42 -3.7 25.4
02:45 1013 29.91 842 24.86 8.5 47.3 43 -3.4 25.8
02:50 1013 29.91 842 24.86 8.3 47 42 -3.8 25.1
02:55 1013 29.91 842 24.86 8.3 47 42 -3.9 24.9
03:00 1013 29.91 842 24.86 8.4 47.2 43 -3.6 25.6
03:05 1012 29.88 842 24.86 8.1 46.7 43 -3.8 25.2
03:10 1012 29.88 842 24.86 8.2 46.8 43 -3.7 25.3
03:15 1012 29.88 842 24.86 8 46.4 45 -3.1 26.4
03:20 1012 29.88 841 24.83 7.8 46.1 45 -3.4 25.9
03:25 1012 29.88 841 24.83 7.9 46.3 45 -3.2 26.3
03:30 1012 29.88 841 24.83 7.7 45.8 46 -3.3 26
03:35 1012 29.88 841 24.83 7.4 45.3 47 -3.3 26
03:40 1012 29.88 841 24.83 7.4 45.3 46 -3.5 25.7
03:45 1012 29.88 841 24.83 7.6 45.7 44 -3.8 25.2
03:50 1012 29.88 841 24.83 7.7 45.9 43 -3.9 25
03:55 1012 29.88 841 24.83 7.7 45.9 44 -3.8 25.1
04:00 1012 29.88 841 24.83 7.7 45.9 43 -3.9 25
04:05 1012 29.88 841 24.83 7.9 46.2 43 -4.1 24.7
04:10 1012 29.88 841 24.83 8 46.4 42 -4 24.8
04:15 1012 29.88 841 24.83 8.3 47 41 -4.2 24.4
04:20 1012 29.88 841 24.83 8.4 47.1 41 -4 24.7
04:25 1012 29.88 841 24.83 8.3 46.9 41 -4.1 24.6
04:30 1012 29.88 841 24.83 8.4 47 41 -4 24.8
04:35 1012 29.88 841 24.83 8.6 47.4 40 -4.4 24.1
04:40 1012 29.88 841 24.83 9 48.1 40 -4 24.8
04:45 1012 29.88 841 24.83 8.9 48.1 40 -4 24.8
04:50 1012 29.88 841 24.83 9 48.2 40 -4 24.8
04:55 1011 29.85 841 24.83 8.7 47.6 42 -3.5 25.7
05:00 1011 29.85 841 24.83 7.5 45.6 45 -3.6 25.5
05:05 1011 29.85 841 24.83 7.1 44.9 45 -3.9 25
05:10 1011 29.85 841 24.83 7.3 45.1 44 -4.1 24.7
05:15 1011 29.85 841 24.83 7.4 45.4 44 -4 24.8
05:20 1011 29.85 841 24.83 7.6 45.7 43 -4.1 24.6
05:25 1011 29.85 840 24.81 7.8 46 43 -4 24.8
05:30 1011 29.85 840 24.81 7.5 45.4 45 -3.8 25.1
05:35 1011 29.85 840 24.81 7.3 45.1 45 -4 24.8
05:40 1011 29.85 840 24.81 7.5 45.5 43 -4.1 24.6
05:45 1011 29.85 840 24.81 7.4 45.2 45 -3.9 25
05:50 1011 29.85 840 24.81 7.3 45.2 44 -4 24.8
05:55 1011 29.85 840 24.81 7.5 45.6 43 -4.1 24.6
06:00 1011 29.85 840 24.81 7.7 45.9 43 -4.1 24.5
06:05 1011 29.85 840 24.81 7.8 46.1 42 -4.1 24.6
06:10 1011 29.85 840 24.81 8.1 46.5 41 -4.5 23.9
06:15 1011 29.85 840 24.81 8.2 46.7 42 -3.9 24.9
06:20 1011 29.85 840 24.81 7.8 46 43 -4 24.8
06:25 1011 29.85 840 24.81 7.3 45.2 44 -4.1 24.7
06:30 1011 29.85 840 24.81 7.3 45.1 44 -4.1 24.5
06:35 1011 29.85 840 24.81 7.2 44.9 45 -4.1 24.6
06:40 1011 29.85 840 24.81 7 44.5 45 -4 24.8
06:45 1011 29.85 840 24.81 6.7 44 46 -4 24.7
06:50 1011 29.85 840 24.81 6.8 44.3 45 -4.1 24.5
06:55 1011 29.85 840 24.81 6.8 44.2 46 -4.1 24.5
07:00 1011 29.85 840 24.81 6.8 44.2 46 -4 24.8
07:05 1011 29.85 840 24.81 6.5 43.7 48 -3.6 25.5
07:10 1011 29.85 840 24.81 5.9 42.6 49 -4 24.9
07:15 1011 29.85 840 24.81 5.8 42.4 49 -4 24.8
07:20 1011 29.85 840 24.81 5.8 42.4 48 -4.3 24.3
07:25 1011 29.85 840 24.81 6 42.8 49 -3.9 24.9
07:30 1011 29.85 840 24.81 5.9 42.5 49 -4 24.8
07:35 1011 29.85 840 24.81 5.8 42.4 48 -4.3 24.3
07:40 1011 29.85 840 24.81 6.2 43.1 47 -4.3 24.3
07:45 1011 29.85 840 24.81 6.7 44 44 -4.6 23.7
07:50 1011 29.85 840 24.81 7.2 45 43 -4.4 24.1
07:55 1011 29.85 840 24.81 7.5 45.5 43 -4.2 24.5
08:00 1011 29.85 840 24.81 7.2 44.9 44 -4.1 24.5
08:05 1011 29.85 840 24.81 7.1 44.8 45 -4.1 24.7
08:10 1011 29.85 840 24.81 6.9 44.4 46 -3.9 25
08:15 1011 29.85 840 24.81 6.8 44.2 46 -3.9 24.9
08:20 1011 29.85 840 24.81 6.9 44.4 46 -4 24.8
08:25 1011 29.85 840 24.81 7.4 45.4 44 -4 24.8
08:30 1011 29.85 840 24.81 7.4 45.4 44 -3.9 25
08:35 1011 29.85 840 24.81 7.6 45.7 43 -4.3 24.2
08:40 1011 29.85 840 24.81 7.8 46 42 -4.3 24.3
08:45 1011 29.85 840 24.81 8 46.3 41 -4.5 23.8
08:50 1011 29.85 840 24.81 8.9 47.9 39 -4.2 24.5
08:55 1011 29.85 840 24.81 9.7 49.5 36 -4.7 23.6
09:00 1011 29.85 840 24.81 10.4 50.6 36 -4.2 24.4
09:05 1011 29.85 840 24.81 10.4 50.7 37 -3.7 25.3
09:10 1010 29.83 840 24.81 10.4 50.7 36 -4 24.7
09:15 1011 29.85 840 24.81 10.3 50.6 36 -4.1 24.6
09:20 1010 29.83 840 24.81 10.5 51 37 -3.6 25.6
09:25 1010 29.83 840 24.81 10.7 51.2 36 -3.9 25
09:30 1010 29.83 840 24.81 11.2 52.2 35 -3.5 25.7
09:35 1010 29.83 839 24.78 11.4 52.4 37 -2.8 26.9
09:40 1010 29.83 839 24.78 11 51.8 37 -2.9 26.8
09:45 1010 29.83 839 24.78 10.6 51.1 39 -2.8 26.9
09:50 1010 29.83 839 24.78 10.4 50.8 38 -3.1 26.4
09:55 1010 29.83 839 24.78 10.4 50.7 39 -3 26.5
10:00 1010 29.83 839 24.78 10.2 50.4 39 -3.2 26.2
10:05 1010 29.83 839 24.78 10.6 51.1 37 -3.5 25.6
10:10 1010 29.83 839 24.78 11.1 52 35 -3.6 25.6
10:15 1010 29.83 839 24.78 11.6 52.8 34 -3.6 25.6
10:20 1010 29.83 839 24.78 12.6 54.6 33 -3.2 26.3
10:25 1010 29.83 839 24.78 12.7 54.9 33 -3 26.6
10:30 1010 29.83 839 24.78 13.5 56.3 30 -3.5 25.7
10:35 1010 29.83 839 24.78 14.1 57.3 31 -2.6 27.4
10:40 1010 29.83 839 24.78 14.2 57.6 31 -2.6 27.4
10:45 1009 29.8 839 24.78 14.4 58 31 -2.5 27.5
10:50 1009 29.8 839 24.78 14.5 58 31 -2.2 28.1
10:55 1009 29.8 839 24.78 14.5 58.1 31 -2.4 27.8
11:00 1009 29.8 839 24.78 14.8 58.7 31 -2.2 28
11:05 1009 29.8 838 24.75 15.6 60 29 -2.4 27.8
11:10 1009 29.8 838 24.75 16 60.9 29 -2.1 28.3
11:15 1009 29.8 838 24.75 16.7 62.1 26 -2.6 27.3
11:20 1009 29.8 838 24.75 17.3 63.2 24 -3.1 26.5
11:25 1009 29.8 838 24.75 16.9 62.3 26 -2.5 27.6
11:30 1009 29.8 838 24.75 16.5 61.8 29 -1.6 29.2
11:35 1009 29.8 838 24.75 16.5 61.6 30 -1.2 29.9
11:40 1009 29.8 838 24.75 15.9 60.6 31 -1.3 29.7
11:45 1009 29.8 838 24.75 15.7 60.3 30 -1.5 29.3
11:50 1009 29.8 838 24.75 15.7 60.3 28 -2.6 27.3
11:55 1009 29.8 838 24.75 15.6 60.1 28 -2.7 27.1
12:00 1008 29.77 838 24.75 15.5 59.8 28 -2.7 27.1
12:05 1008 29.77 837 24.72 15.3 59.5 29 -2.7 27.2
12:10 1008 29.77 837 24.72 15 59 29 -2.8 26.9
12:15 1008 29.77 837 24.72 14.9 58.8 29 -2.8 27
12:20 1008 29.77 837 24.72 14.9 58.8 29 -3 26.6
12:25 1008 29.77 837 24.72 14.9 58.8 29 -2.8 26.9
12:30 1008 29.77 837 24.72 14.9 58.8 29 -2.8 26.9
12:35 1008 29.77 837 24.72 14.8 58.7 29 -3 26.5
12:40 1008 29.77 837 24.72 14.9 58.7 29 -2.7 27.1
12:45 1008 29.77 837 24.72 14.8 58.7 29 -2.8 26.9
12:50 1008 29.77 837 24.72 14.8 58.7 29 -2.8 27
12:55 1008 29.77 837 24.72 14.8 58.7 30 -2.7 27.2
13:00 1007 29.74 837 24.72 14.8 58.7 28 -3.5 25.6
13:05 1007 29.74 837 24.72 15 59 28 -3.2 26.3
13:10 1007 29.74 837 24.72 14.9 58.8 29 -3 26.6
13:15 1007 29.74 837 24.72 14.8 58.7 29 -3 26.6
13:20 1007 29.74 837 24.72 14.8 58.6 29 -2.8 27
13:25 1007 29.74 837 24.72 14.7 58.4 30 -2.6 27.3
13:30 1007 29.74 836 24.69 14.7 58.4 31 -2.4 27.6
13:35 1007 29.74 836 24.69 14.6 58.2 31 -2.5 27.6
13:40 1007 29.74 836 24.69 14.6 58.3 31 -2.3 27.9
13:45 1007 29.74 836 24.69 14.6 58.2 30 -2.8 27
13:50 1007 29.74 836 24.69 14.6 58.2 30 -2.6 27.4
13:55 1007 29.74 836 24.69 14.6 58.3 30 -2.7 27.2
14:00 1007 29.74 836 24.69 14.6 58.3 30 -2.8 26.9
14:05 1007 29.74 836 24.69 14.7 58.5 29 -3.2 26.3
14:10 1007 29.74 836 24.69 14.8 58.7 29 -2.8 27
14:15 1007 29.74 836 24.69 14.7 58.5 29 -2.9 26.7
14:20 1007 29.74 836 24.69 14.7 58.4 30 -2.8 27
14:25 1007 29.74 836 24.69 14.5 58.2 30 -2.8 27
14:30 1007 29.74 836 24.69 14.6 58.2 29 -3 26.5
14:35 1007 29.74 836 24.69 14.6 58.2 29 -3 26.6
14:40 1007 29.74 836 24.69 14.7 58.4 30 -2.6 27.3
14:45 1007 29.74 836 24.69 14.4 57.8 31 -2.5 27.5
14:50 1007 29.74 836 24.69 14.3 57.8 29 -3.2 26.3
14:55 1007 29.74 836 24.69 14.5 58.1 29 -3.2 26.3
15:00 1007 29.74 836 24.69 14.6 58.2 29 -3 26.6
15:05 1007 29.74 836 24.69 14.5 58.1 30 -3 26.6
15:10 1007 29.74 836 24.69 14.5 58.1 30 -2.8 27
15:15 1007 29.74 836 24.69 14.4 57.8 32 -2.2 28.1
15:20 1007 29.74 836 24.69 14.1 57.3 33 -2 28.5
15:25 1007 29.74 836 24.69 14 57.1 33 -2 28.4
15:30 1007 29.74 836 24.69 13.9 57 34 -1.8 28.7
15:35 1007 29.74 836 24.69 13.7 56.7 34 -1.7 28.9
15:40 1007 29.74 836 24.69 13.6 56.5 35 -1.6 29.1
15:45 1007 29.74 836 24.69 13.5 56.2 36 -1.4 29.5
15:50 1007 29.74 836 24.69 13.3 55.9 37 -1 30.3
15:55 1007 29.74 836 24.69 13.1 55.5 38 -0.8 30.6
16:00 1007 29.74 836 24.69 13 55.3 39 -0.8 30.6
16:05 1007 29.74 836 24.69 12.8 55 40 -0.4 31.3
16:10 1007 29.74 836 24.69 12.6 54.7 41 -0.4 31.4
16:15 1007 29.74 836 24.69 12.5 54.5 41 -0.4 31.4
16:20 1007 29.74 836 24.69 12.5 54.5 41 -0.5 31.2
16:25 1007 29.74 836 24.69 12.5 54.5 41 -0.2 31.6
16:30 1007 29.74 836 24.69 12.3 54.1 43 0.2 32.3
16:35 1007 29.74 836 24.69 12.1 53.8 43 0.1 32.1
16:40 1007 29.74 837 24.72 12.1 53.7 43 -0 32
16:45 1007 29.74 837 24.72 12 53.6 44 0.2 32.3
16:50 1007 29.74 837 24.72 11.9 53.4 45 0.3 32.5
16:55 1008 29.77 837 24.72 11.7 53.1 46 0.5 32.9
17:00 1008 29.77 837 24.72 11.7 53 46 0.4 32.7
17:05 1008 29.77 837 24.72 11.6 52.9 46 0.4 32.7
17:10 1008 29.77 837 24.72 11.6 52.8 46 0.2 32.4
17:15 1008 29.77 837 24.72 11.6 52.8 45 0.1 32.2
17:20 1008 29.77 837 24.72 11.6 52.9 46 0.5 32.8
17:25 1008 29.77 837 24.72 11.5 52.7 47 0.5 32.9
17:30 1008 29.77 837 24.72 11.3 52.4 48 0.6 33.2
17:35 1008 29.77 837 24.72 11.2 52.2 47 0.4 32.7
17:40 1008 29.77 837 24.72 11.3 52.4 49 1 33.8
17:45 1008 29.77 837 24.72 11.1 52 51 1.4 34.5
17:50 1008 29.77 837 24.72 10.8 51.5 53 1.6 34.9
17:55 1008 29.77 838 24.75 10.5 51 54 1.8 35.2
18:00 1008 29.77 838 24.75 10.3 50.6 56 2 35.5
18:05 1008 29.77 838 24.75 10.1 50.1 59 2.4 36.2
18:10 1008 29.77 838 24.75 9.8 49.6 61 2.7 36.8
18:15 1009 29.8 838 24.75 9.6 49.3 61 2.6 36.7
18:20 1009 29.8 838 24.75 9.5 49.1 63 2.9 37.2
18:25 1008 29.77 838 24.75 9.2 48.5 65 2.9 37.3
18:30 1008 29.77 838 24.75 9 48.2 65 2.9 37.2
18:35 1008 29.77 838 24.75 9 48.1 65 2.7 36.9
18:40 1008 29.77 838 24.75 8.9 48 67 3 37.5
18:45 1008 29.77 838 24.75 8.8 47.8 66 2.8 37
18:50 1009 29.8 838 24.75 8.7 47.7 65 2.5 36.6
18:55 1009 29.8 838 24.75 8.8 47.8 64 2.4 36.3
19:00 1009 29.8 838 24.75 8.9 48 63 2.3 36.1
19:05 1009 29.8 838 24.75 8.8 47.9 62 2.1 35.8
19:10 1009 29.8 838 24.75 8.8 47.9 61 1.7 35.1
19:15 1009 29.8 838 24.75 8.9 47.9 60 1.6 34.9
19:20 1009 29.8 838 24.75 8.8 47.9 62 1.9 35.4
19:25 1009 29.8 838 24.75 8.8 47.8 62 2 35.6
19:30 1009 29.8 839 24.78 8.8 47.8 62 2 35.5
19:35 1010 29.83 839 24.78 8.8 47.8 63 2.1 35.8
19:40 1010 29.83 839 24.78 8.7 47.6 68 3.2 37.8
19:45 1010 29.83 839 24.78 7.1 44.8 79 3.8 38.8
19:50 1010 29.83 839 24.78 5.7 42.3 83 3.2 37.7
19:55 1010 29.83 840 24.81 5.1 41.2 85 2.8 37
20:00 1011 29.85 840 24.81 5 40.9 86 2.8 37
20:05 1011 29.85 840 24.81 4.9 40.8 86 2.7 36.9
20:10 1011 29.85 840 24.81 4.8 40.7 85 2.6 36.6
20:15 1011 29.85 840 24.81 4.8 40.7 85 2.5 36.5
20:20 1011 29.85 840 24.81 4.9 40.8 84 2.4 36.4
20:25 1011 29.85 840 24.81 4.9 40.9 82 2.1 35.8
20:30 1011 29.85 840 24.81 5 40.9 81 2 35.6
20:35 1011 29.85 840 24.81 4.9 40.8 82 2 35.7
20:40 1011 29.85 840 24.81 4.6 40.2 85 2.2 36
20:45 1011 29.85 840 24.81 4.3 39.7 87 2.4 36.2
20:50 1010 29.83 840 24.81 4 39.2 89 2.4 36.3
20:55 1010 29.83 840 24.81 3.8 38.9 89 2.2 36
21:00 1010 29.83 840 24.81 3.8 38.8 89 2.2 35.9
21:05 1010 29.83 840 24.81 3.7 38.7 90 2.3 36.1
21:10 1010 29.83 840 24.81 3.7 38.7 88 2 35.5
21:15 1011 29.85 840 24.81 3.9 39 86 1.8 35.3
21:20 1011 29.85 840 24.81 4.1 39.3 84 1.6 34.8
21:25 1011 29.85 840 24.81 4.6 40.2 80 1.3 34.4
21:30 1011 29.85 840 24.81 5.4 41.7 74 1.2 34.1
21:35 1011 29.85 840 24.81 6 42.8 75 1.9 35.5
21:40 1011 29.85 840 24.81 5.7 42.3 79 2.4 36.4
21:45 1011 29.85 841 24.83 4.7 40.4 81 1.8 35.2
21:50 1011 29.85 841 24.83 4.7 40.4 82 1.8 35.3
21:55 1011 29.85 841 24.83 4.9 40.8 80 1.8 35.3
22:00 1012 29.88 841 24.83 5.1 41.1 80 1.9 35.4
22:05 1012 29.88 841 24.83 5.2 41.4 80 2 35.6
22:10 1012 29.88 841 24.83 5.2 41.4 80 2 35.6
22:15 1012 29.88 841 24.83 5.3 41.6 80 2.2 36
22:20 1012 29.88 841 24.83 5.3 41.5 79 1.9 35.4
22:25 1012 29.88 841 24.83 4.9 40.9 80 1.7 35.1
22:30 1012 29.88 841 24.83 4.8 40.6 78 1.3 34.4
22:35 1012 29.88 841 24.83 4.9 40.8 80 1.8 35.2
22:40 1012 29.88 841 24.83 5 41 81 2 35.7
22:45 1012 29.88 841 24.83 5.1 41.2 79 1.7 35
22:50 1012 29.88 841 24.83 5.3 41.5 78 1.7 35
22:55 1012 29.88 841 24.83 5.4 41.8 66 -0.3 31.4
23:00 1012 29.88 841 24.83 5.6 42.1 66 -0.3 31.4
23:05 1012 29.88 841 24.83 5.7 42.2 66 -0.1 31.9
23:10 1012 29.88 841 24.83 5.7 42.2 67 0.1 32.1
23:15 1012 29.88 841 24.83 5.6 42.1 64 -0.6 31
23:20 1012 29.88 842 24.86 5.6 42.1 67 0 32
23:25 1012 29.88 842 24.86 5.5 41.9 70 0.4 32.7
23:30 1012 29.88 842 24.86 5.4 41.7 69 0.1 32.2
23:35 1012 29.88 842 24.86 5.3 41.5 66 -0.6 31
23:40 1012 29.88 842 24.86 5.2 41.3 63 -1.2 29.8
23:45 1013 29.91 842 24.86 5.1 41.1 57 -2.6 27.3
23:50 1013 29.91 842 24.86 5.1 41.1 54 -3.4 25.8
23:55 1013 29.91 842 24.86 5.1 41.2 57 -2.6 27.2
24:00 1013 29.91 842 24.86 5.1 41.1 54 -3.5 25.8